Time,TemperatureF,DewpointF,PressureIn,WindDirection,WindDirectionDegrees,WindSpeedMPH,WindSpeedGustMPH,Humidity,HourlyPrecipIn,Conditions,Clouds,dailyrainin,SoftwareType,DateUTC
2013-05-15 00:02:00,75.0,61.0,30.04,SSE,148,3.0,8.0,62,0.00,,,-99.99,,2013-05-15 05:02:00,
2013-05-15 00:12:00,75.0,61.0,30.04,SSE,148,3.0,8.0,62,0.00,,,-99.99,,2013-05-15 05:12:00,
2013-05-15 00:22:00,75.0,61.0,30.04,SSE,148,3.0,8.0,62,0.00,,,-99.99,,2013-05-15 05:22:00,
2013-05-15 00:32:00,76.0,63.0,30.05,SSW,204,5.0,19.0,64,0.00,,,-99.99,,2013-05-15 05:32:00,
2013-05-15 00:42:00,76.0,63.0,30.05,SSW,204,5.0,19.0,64,0.00,,,-99.99,,2013-05-15 05:42:00,
2013-05-15 00:52:00,76.0,63.0,30.05,SSW,204,5.0,19.0,64,0.00,,,-99.99,,2013-05-15 05:52:00,
2013-05-15 01:02:00,75.0,63.0,30.05,SSW,207,9.0,13.0,67,0.00,,,-99.99,,2013-05-15 06:02:00,
2013-05-15 01:11:00,75.0,63.0,30.05,SSW,207,9.0,13.0,67,0.00,,,-99.99,,2013-05-15 06:11:00,
2013-05-15 01:21:00,74.0,63.0,30.05,SSW,210,14.0,14.0,69,0.00,,,-99.99,,2013-05-15 06:21:00,
2013-05-15 01:32:00,74.0,64.0,30.04,SSW,197,10.0,16.0,71,0.00,,,-99.99,,2013-05-15 06:32:00,
2013-05-15 01:41:00,74.0,65.0,30.03,SW,226,5.0,15.0,73,0.00,,,-99.99,,2013-05-15 06:41:00,
2013-05-15 01:52:00,74.0,65.0,30.03,SW,226,5.0,15.0,73,0.00,,,-99.99,,2013-05-15 06:52:00,
2013-05-15 02:01:00,74.0,65.0,30.03,SW,226,5.0,15.0,73,0.00,,,-99.99,,2013-05-15 07:01:00,
2013-05-15 02:11:00,74.0,65.0,30.03,SW,226,5.0,15.0,73,0.00,,,-99.99,,2013-05-15 07:11:00,
2013-05-15 02:21:00,72.0,65.0,30.03,SSW,196,8.0,23.0,78,0.00,,,-99.99,,2013-05-15 07:21:00,
2013-05-15 02:32:00,70.0,60.0,30.04,SSE,158,8.0,17.0,70,0.00,,,-99.99,,2013-05-15 07:32:00,
2013-05-15 02:41:00,70.0,60.0,30.04,SSE,158,8.0,17.0,70,0.00,,,-99.99,,2013-05-15 07:41:00,
2013-05-15 02:52:00,67.0,61.0,29.92,SE,141,17.0,19.0,80,0.14,,,-99.99,,2013-05-15 07:52:00,
2013-05-15 03:02:00,65.0,61.0,29.96,ESE,117,2.0,9.0,86,0.00,,,-99.99,,2013-05-15 08:02:00,
2013-05-15 03:12:00,65.0,61.0,29.96,ESE,117,2.0,9.0,86,0.00,,,-99.99,,2013-05-15 08:12:00,
2013-05-15 03:21:00,66.0,61.0,29.95,SSE,158,1.0,9.0,84,0.00,,,-99.99,,2013-05-15 08:21:00,
2013-05-15 03:32:00,65.0,61.0,29.98,NW,324,2.0,7.0,87,0.00,,,-99.99,,2013-05-15 08:32:00,
2013-05-15 03:42:00,66.0,61.0,29.99,WNW,286,4.0,8.0,84,0.00,,,-99.99,,2013-05-15 08:42:00,
2013-05-15 03:52:00,66.0,61.0,29.99,WNW,286,4.0,8.0,84,0.00,,,-99.99,,2013-05-15 08:52:00,
2013-05-15 04:01:00,66.0,61.0,30.01,WNW,294,5.0,10.0,84,0.00,,,-99.99,,2013-05-15 09:01:00,
2013-05-15 04:11:00,65.0,60.0,30.00,West,262,1.0,9.0,85,0.00,,,-99.99,,2013-05-15 09:11:00,
2013-05-15 04:21:00,65.0,60.0,30.00,West,262,1.0,9.0,85,0.00,,,-99.99,,2013-05-15 09:21:00,
2013-05-15 04:33:00,65.0,61.0,30.01,SSW,210,3.0,6.0,88,0.00,,,-99.99,,2013-05-15 09:33:00,
2013-05-15 04:42:00,65.0,61.0,30.01,SSW,210,3.0,6.0,88,0.00,,,-99.99,,2013-05-15 09:42:00,
2013-05-15 04:53:00,65.0,61.0,30.00,SW,215,2.0,8.0,88,0.00,,,-99.99,,2013-05-15 09:53:00,
2013-05-15 05:02:00,64.0,60.0,29.99,SSE,159,0.0,4.0,88,0.00,,,-99.99,,2013-05-15 10:02:00,
2013-05-15 05:12:00,64.0,60.0,29.99,SSE,159,0.0,4.0,88,0.00,,,-99.99,,2013-05-15 10:12:00,
2013-05-15 05:22:00,64.0,60.0,29.98,ESE,118,2.0,3.0,88,0.00,,,-99.99,,2013-05-15 10:22:00,
2013-05-15 05:32:00,64.0,61.0,29.97,SE,145,2.0,5.0,89,0.00,,,-99.99,,2013-05-15 10:32:00,
2013-05-15 05:42:00,64.0,61.0,29.98,ESE,113,2.0,3.0,89,0.00,,,-99.99,,2013-05-15 10:42:00,
2013-05-15 05:52:00,64.0,61.0,29.98,ESE,113,2.0,3.0,89,0.00,,,-99.99,,2013-05-15 10:52:00,
2013-05-15 06:08:00,64.0,61.0,29.98,ESE,118,1.0,3.0,90,0.00,,,-99.99,,2013-05-15 11:08:00,
2013-05-15 06:17:00,64.0,61.0,29.98,ESE,122,3.0,5.0,91,0.00,,,-99.99,,2013-05-15 11:17:00,
2013-05-15 06:26:00,64.0,61.0,29.98,ESE,122,3.0,5.0,91,0.00,,,-99.99,,2013-05-15 11:26:00,
2013-05-15 06:35:00,63.0,60.0,29.98,ESE,118,3.0,7.0,91,0.00,,,-99.99,,2013-05-15 11:35:00,
2013-05-15 06:47:00,63.0,61.0,29.98,SSE,155,4.0,8.0,93,0.00,,,-99.99,,2013-05-15 11:47:00,
2013-05-15 06:59:00,63.0,61.0,29.98,SSE,155,4.0,8.0,93,0.00,,,-99.99,,2013-05-15 11:59:00,
2013-05-15 07:06:00,63.0,61.0,29.98,SSE,155,4.0,8.0,93,0.00,,,-99.99,,2013-05-15 12:06:00,
2013-05-15 07:13:00,63.0,61.0,29.99,SE,139,5.0,6.0,93,0.00,,,-99.99,,2013-05-15 12:13:00,
2013-05-15 07:27:00,63.0,61.0,29.99,SE,139,5.0,6.0,93,0.00,,,-99.99,,2013-05-15 12:27:00,
2013-05-15 07:35:00,63.0,61.0,29.99,SE,129,5.0,6.0,94,0.00,,,-99.99,,2013-05-15 12:35:00,
2013-05-15 07:47:00,63.0,61.0,29.99,SE,129,5.0,6.0,94,0.00,,,-99.99,,2013-05-15 12:47:00,
2013-05-15 07:54:00,65.0,63.0,29.99,SSW,205,4.0,8.0,94,0.00,,,-99.99,,2013-05-15 12:54:00,
2013-05-15 08:08:00,66.0,63.0,29.99,South,186,3.0,6.0,90,0.00,,,-99.99,,2013-05-15 13:08:00,
2013-05-15 08:17:00,67.0,64.0,29.99,SSE,167,1.0,9.0,89,0.00,,,-99.99,,2013-05-15 13:17:00,
2013-05-15 08:24:00,67.0,64.0,29.99,SSE,167,1.0,9.0,89,0.00,,,-99.99,,2013-05-15 13:24:00,
2013-05-15 08:46:00,67.0,64.0,29.99,SSE,167,1.0,9.0,89,0.00,,,-99.99,,2013-05-15 13:46:00,
2013-05-15 08:55:00,68.0,64.0,30.00,SSE,164,5.0,8.0,86,0.00,,,-99.99,,2013-05-15 13:55:00,
2013-05-15 09:05:00,68.0,64.0,29.99,South,183,6.0,11.0,86,0.00,,,-99.99,,2013-05-15 14:05:00,
2013-05-15 09:14:00,68.0,64.0,29.99,SSE,152,8.0,10.0,87,0.00,,,-99.99,,2013-05-15 14:14:00,
2013-05-15 09:25:00,68.0,64.0,29.99,SSE,152,8.0,10.0,87,0.00,,,-99.99,,2013-05-15 14:25:00,
2013-05-15 09:36:00,68.0,64.0,29.99,South,174,3.0,10.0,88,0.00,,,-99.99,,2013-05-15 14:36:00,
2013-05-15 09:45:00,68.0,64.0,29.99,South,174,3.0,10.0,88,0.00,,,-99.99,,2013-05-15 14:45:00,
2013-05-15 10:08:00,69.0,65.0,29.98,SSW,193,5.0,9.0,86,0.00,,,-99.99,,2013-05-15 15:08:00,
2013-05-15 10:27:00,70.0,65.0,29.98,SE,129,6.0,10.0,85,0.00,,,-99.99,,2013-05-15 15:27:00,
2013-05-15 10:36:00,70.0,65.0,29.98,SE,129,6.0,10.0,85,0.00,,,-99.99,,2013-05-15 15:36:00,
2013-05-15 11:00:00,72.0,67.0,29.97,SSE,148,2.0,10.0,83,0.00,,,-99.99,,2013-05-15 16:00:00,
2013-05-15 11:07:00,73.0,67.0,29.96,SSE,167,7.0,9.0,81,0.00,,,-99.99,,2013-05-15 16:07:00,
2013-05-15 11:21:00,75.0,68.0,29.96,SSE,149,11.0,14.0,78,0.00,,,-99.99,,2013-05-15 16:21:00,
2013-05-15 11:27:00,75.0,68.0,29.96,SSE,149,11.0,14.0,78,0.00,,,-99.99,,2013-05-15 16:27:00,
2013-05-15 11:34:00,75.0,68.0,29.96,SSE,149,11.0,14.0,78,0.00,,,-99.99,,2013-05-15 16:34:00,
2013-05-15 11:47:00,75.0,68.0,29.96,SSE,149,11.0,14.0,78,0.00,,,-99.99,,2013-05-15 16:47:00,
2013-05-15 11:58:00,77.0,67.0,29.94,South,186,5.0,18.0,71,0.00,,,-99.99,,2013-05-15 16:58:00,
2013-05-15 12:08:00,77.0,67.0,29.94,South,186,5.0,18.0,71,0.00,,,-99.99,,2013-05-15 17:08:00,
2013-05-15 12:26:00,78.0,65.0,29.94,SW,214,10.0,18.0,65,0.00,,,-99.99,,2013-05-15 17:26:00,
2013-05-15 12:45:00,78.0,66.0,29.93,SSW,200,13.0,22.0,66,0.00,,,-99.99,,2013-05-15 17:45:00,
2013-05-15 12:55:00,80.0,66.0,29.93,SSW,210,5.0,17.0,62,0.00,,,-99.99,,2013-05-15 17:55:00,
2013-05-15 13:05:00,80.0,65.0,29.92,SW,227,11.0,18.0,60,0.00,,,-99.99,,2013-05-15 18:05:00,
2013-05-15 13:26:00,81.0,65.0,29.90,SSW,200,7.0,19.0,59,0.00,,,-99.99,,2013-05-15 18:26:00,
2013-05-15 13:28:00,82.0,65.0,29.89,SSW,207,2.0,13.0,56,0.00,,,-99.99,,2013-05-15 18:28:00,
2013-05-15 13:36:00,81.0,65.0,29.90,SSW,200,7.0,19.0,59,0.00,,,-99.99,,2013-05-15 18:36:00,
2013-05-15 13:46:00,81.0,65.0,29.90,SSW,200,7.0,19.0,59,0.00,,,-99.99,,2013-05-15 18:46:00,
2013-05-15 13:54:00,82.0,65.0,29.89,SSW,207,2.0,13.0,56,0.00,,,-99.99,,2013-05-15 18:54:00,
2013-05-15 14:15:00,82.0,65.0,29.89,SSW,207,2.0,13.0,56,0.00,,,-99.99,,2013-05-15 19:15:00,
2013-05-15 15:40:00,85.0,64.0,29.85,SW,225,3.0,13.0,50,0.00,,,-99.99,,2013-05-15 20:40:00,
2013-05-15 15:47:00,85.0,64.0,29.85,SW,225,3.0,13.0,50,0.00,,,-99.99,,2013-05-15 20:47:00,
2013-05-15 15:57:00,84.0,64.0,29.85,SE,145,4.0,17.0,52,0.00,,,-99.99,,2013-05-15 20:57:00,
2013-05-15 16:03:00,85.0,64.0,29.83,South,186,11.0,19.0,49,0.00,,,-99.99,,2013-05-15 21:03:00,
2013-05-15 16:07:00,85.0,64.0,29.84,South,181,7.0,16.0,49,0.00,,,-99.99,,2013-05-15 21:07:00,
2013-05-15 16:18:00,85.0,64.0,29.84,South,181,7.0,16.0,49,0.00,,,-99.99,,2013-05-15 21:18:00,
2013-05-15 16:26:00,85.0,64.0,29.83,South,186,11.0,19.0,49,0.00,,,-99.99,,2013-05-15 21:26:00,
2013-05-15 16:38:00,85.0,64.0,29.83,South,186,11.0,19.0,49,0.00,,,-99.99,,2013-05-15 21:38:00,
2013-05-15 16:48:00,85.0,64.0,29.83,South,186,11.0,19.0,49,0.00,,,-99.99,,2013-05-15 21:48:00,
2013-05-15 17:00:00,85.0,64.0,29.83,South,186,11.0,19.0,49,0.00,,,-99.99,,2013-05-15 22:00:00,
2013-05-15 18:27:00,88.0,61.0,29.79,WSW,245,12.0,18.0,41,0.00,,,-99.99,,2013-05-15 23:27:00,
2013-05-15 18:38:00,88.0,61.0,29.78,South,187,13.0,17.0,41,0.00,,,-99.99,,2013-05-15 23:38:00,
2013-05-15 18:48:00,88.0,61.0,29.78,South,187,13.0,17.0,41,0.00,,,-99.99,,2013-05-15 23:48:00,
2013-05-15 19:05:00,88.0,62.0,29.76,SSW,207,7.0,17.0,42,0.00,,,-99.99,,2013-05-16 00:05:00,
2013-05-15 19:16:00,88.0,62.0,29.76,SSW,207,7.0,17.0,42,0.00,,,-99.99,,2013-05-16 00:16:00,
2013-05-15 19:25:00,88.0,62.0,29.76,SSW,207,7.0,17.0,42,0.00,,,-99.99,,2013-05-16 00:25:00,
2013-05-15 19:35:00,87.0,62.0,29.75,WSW,243,14.0,20.0,44,0.00,,,-99.99,,2013-05-16 00:35:00,
2013-05-15 19:47:00,87.0,62.0,29.75,WSW,243,14.0,20.0,44,0.00,,,-99.99,,2013-05-16 00:47:00,
2013-05-15 19:58:00,87.0,62.0,29.75,WSW,243,14.0,20.0,44,0.00,,,-99.99,,2013-05-16 00:58:00,
2013-05-15 20:30:00,84.0,65.0,29.76,SSE,153,5.0,18.0,53,0.00,,,-99.99,,2013-05-16 01:30:00,
2013-05-15 20:39:00,84.0,65.0,29.76,SSE,153,5.0,18.0,53,0.00,,,-99.99,,2013-05-16 01:39:00,
2013-05-15 20:49:00,84.0,65.0,29.76,SSE,153,5.0,18.0,53,0.00,,,-99.99,,2013-05-16 01:49:00,
2013-05-15 21:06:00,82.0,65.0,29.76,ESE,123,3.0,12.0,57,0.00,,,-99.99,,2013-05-16 02:06:00,
2013-05-15 21:16:00,82.0,65.0,29.76,ESE,123,3.0,12.0,57,0.00,,,-99.99,,2013-05-16 02:16:00,
2013-05-15 21:26:00,82.0,65.0,29.76,ESE,123,3.0,12.0,57,0.00,,,-99.99,,2013-05-16 02:26:00,
2013-05-15 21:36:00,79.0,65.0,29.76,WSW,248,8.0,14.0,63,0.00,,,-99.99,,2013-05-16 02:36:00,
2013-05-15 21:48:00,79.0,65.0,29.76,WSW,248,8.0,14.0,63,0.00,,,-99.99,,2013-05-16 02:48:00,
2013-05-15 21:55:00,79.0,65.0,29.76,WSW,248,8.0,14.0,63,0.00,,,-99.99,,2013-05-16 02:55:00,
2013-05-15 22:07:00,79.0,65.0,29.76,WSW,248,8.0,14.0,63,0.00,,,-99.99,,2013-05-16 03:07:00,
2013-05-15 22:25:00,78.0,66.0,29.77,SSW,204,9.0,17.0,67,0.00,,,-99.99,,2013-05-16 03:25:00,
2013-05-15 22:45:00,78.0,66.0,29.77,SSW,204,9.0,17.0,67,0.00,,,-99.99,,2013-05-16 03:45:00,
2013-05-15 22:54:00,78.0,66.0,29.77,SSW,204,9.0,17.0,67,0.00,,,-99.99,,2013-05-16 03:54:00,
2013-05-15 23:23:00,76.0,68.0,29.74,South,179,12.0,17.0,76,0.00,,,-99.99,,2013-05-16 04:23:00,
2013-05-15 23:33:00,76.0,68.0,29.74,South,179,12.0,17.0,76,0.00,,,-99.99,,2013-05-16 04:33:00,
2013-05-15 23:42:00,76.0,68.0,29.74,South,179,12.0,17.0,76,0.00,,,-99.99,,2013-05-16 04:42:00,
2013-05-15 23:52:00,76.0,68.0,29.74,South,179,12.0,17.0,76,0.00,,,-99.99,,2013-05-16 04:52:00,